Time;durP1;ratioP1;P1;durP2;ratioP2;P2;SDS_P1;SDS_P2;PMS_P1;PMS_P2;Temp;Humidity;BMP_temperature;BMP_pressure;BME280_temperature;BME280_humidity;BME280_pressure;Samples;Min_cycle;Max_cycle;Signal;HPM_P1;HPM_P2
2020/12/21 00:37:38;;;;;;;;;;;;;;;;;;;;;
2020/12/21 03:27:40;;;;;;;;;;;;;;;;;;;;;
2020/12/21 05:58:41;;;;;;;20.10;13.30;;;6.20;99.90;;;;;;4961030;28;20547;-90
2020/12/21 06:01:16;;;;;;;17.10;12.40;;;6.20;99.90;;;;;;5001406;28;20547;-90
2020/12/21 06:48:00;;;;;;;;;;;;;;;;;;;;;
2020/12/21 06:55:15;;;;;;;;;;;;;;;;;;;;;
2020/12/21 07:42:52;;;;;;;18.77;15.80;;;5.50;99.90;;;;;;4901882;29;20471;-89
2020/12/21 07:45:23;;;;;;;23.07;15.03;;;5.50;99.90;;;;;;4992661;28;20206;-89
2020/12/21 07:47:51;;;;;;;21.57;15.70;;;5.40;99.90;;;;;;5036840;28;20576;-89
2020/12/21 07:50:18;;;;;;;18.10;15.70;;;5.40;99.90;;;;;;5039033;28;20457;-89
2020/12/21 07:52:46;;;;;;;17.30;14.90;;;5.40;99.90;;;;;;5034643;28;20459;-89
2020/12/21 07:55:14;;;;;;;17.50;15.03;;;5.40;99.90;;;;;;5019305;28;20487;-89
2020/12/21 07:57:43;;;;;;;17.47;15.13;;;5.40;99.90;;;;;;5018153;28;20572;-90
2020/12/21 08:00:13;;;;;;;19.87;14.67;;;5.60;99.90;;;;;;5018771;28;20458;-89
2020/12/21 08:02:44;;;;;;;17.47;14.30;;;5.60;99.90;;;;;;5024688;28;20451;-89
2020/12/21 08:05:18;;;;;;;20.77;15.05;;;5.50;99.90;;;;;;5034705;28;20829;-89
2020/12/21 08:07:45;;;;;;;19.37;14.73;;;5.60;99.90;;;;;;5038660;28;20220;-89
2020/12/21 08:10:13;;;;;;;20.83;14.47;;;5.60;99.90;;;;;;5034968;28;20455;-89
2020/12/21 08:12:40;;;;;;;18.73;14.20;;;5.60;99.90;;;;;;5019798;28;21035;-90
2020/12/21 08:15:09;;;;;;;17.93;14.50;;;5.60;99.90;;;;;;5038163;28;20457;-89
2020/12/21 08:17:36;;;;;;;21.23;13.97;;;5.60;99.90;;;;;;5028568;28;20477;-90
2020/12/21 08:20:07;;;;;;;15.43;13.27;;;5.60;99.90;;;;;;5033838;28;20451;-90
2020/12/21 08:22:37;;;;;;;14.90;13.30;;;5.60;99.90;;;;;;5019124;28;20992;-89
2020/12/21 08:25:09;;;;;;;16.50;13.20;;;5.60;99.90;;;;;;5028374;28;20457;-89
2020/12/21 08:27:37;;;;;;;18.97;13.73;;;5.60;99.90;;;;;;5038089;28;20509;-90
2020/12/21 08:30:12;;;;;;;17.33;13.20;;;5.60;99.90;;;;;;5024093;28;20459;-90
2020/12/21 08:32:40;;;;;;;17.80;13.20;;;5.60;99.90;;;;;;5025486;28;20474;-90
2020/12/21 08:35:09;;;;;;;13.53;11.80;;;5.60;99.90;;;;;;5036973;28;20875;-89
2020/12/21 08:37:37;;;;;;;18.67;13.70;;;5.60;99.90;;;;;;5039012;28;20513;-90
2020/12/21 08:40:12;;;;;;;16.00;12.03;;;5.60;99.90;;;;;;5035174;28;20482;-90
2020/12/21 08:42:55;;;;;;;15.00;12.03;;;5.60;99.90;;;;;;5035528;28;20485;-89
2020/12/21 08:45:23;;;;;;;15.33;10.93;;;5.60;99.90;;;;;;5024814;28;20487;-89
2020/12/21 08:47:50;;;;;;;13.40;11.07;;;5.60;99.90;;;;;;5019984;28;20506;-89
2020/12/21 08:50:22;;;;;;;13.43;11.27;;;5.60;99.90;;;;;;5020137;28;20538;-89
2020/12/21 08:52:50;;;;;;;12.70;10.90;;;5.60;99.90;;;;;;5019871;28;20485;-89
2020/12/21 08:55:17;;;;;;;14.83;10.47;;;5.60;99.90;;;;;;5030108;28;20450;-87
2020/12/21 08:57:44;;;;;;;12.40;10.07;;;5.60;99.90;;;;;;5038366;28;21121;-87
2020/12/21 09:00:11;;;;;;;14.10;9.97;;;5.60;99.90;;;;;;5039494;28;20474;-86
2020/12/21 09:02:39;;;;;;;16.63;9.50;;;5.60;99.90;;;;;;5039678;28;20477;-86
2020/12/21 09:05:06;;;;;;;11.63;8.63;;;5.60;99.90;;;;;;5040341;28;20821;-87
2020/12/21 09:07:37;;;;;;;12.03;8.03;;;5.70;99.90;;;;;;5034474;28;20565;-88
2020/12/21 09:10:05;;;;;;;16.27;9.47;;;5.60;99.90;;;;;;5056633;28;20988;-87
2020/12/21 09:12:33;;;;;;;11.80;7.93;;;5.60;99.90;;;;;;5019876;28;20439;-85
2020/12/21 09:15:02;;;;;;;11.17;7.50;;;5.60;99.90;;;;;;5052895;28;20462;-85
2020/12/21 09:17:29;;;;;;;10.63;7.97;;;5.70;99.90;;;;;;5066617;28;20478;-85
2020/12/21 09:19:57;;;;;;;10.47;7.63;;;5.70;99.90;;;;;;5019462;28;20446;-88
2020/12/21 09:22:26;;;;;;;13.63;8.53;;;5.80;99.90;;;;;;5034952;28;20819;-87
2020/12/21 09:24:54;;;;;;;9.40;7.70;;;5.80;99.90;;;;;;5018745;28;20509;-88
2020/12/21 09:27:21;;;;;;;11.63;7.40;;;5.80;99.90;;;;;;5037333;28;20579;-86
2020/12/21 09:29:48;;;;;;;12.07;7.73;;;5.90;99.90;;;;;;5038940;28;20480;-87
2020/12/21 09:32:16;;;;;;;9.03;7.07;;;5.90;99.90;;;;;;5046073;28;20454;-88
2020/12/21 09:34:49;;;;;;;15.87;7.63;;;5.90;99.90;;;;;;5038752;28;20446;-86
2020/12/21 09:37:16;;;;;;;12.27;6.70;;;6.00;99.90;;;;;;5038309;28;20465;-87
2020/12/21 09:39:59;;;;;;;9.17;6.27;;;6.00;99.90;;;;;;5038382;28;20527;-87
2020/12/21 09:42:33;;;;;;;9.77;6.17;;;6.10;99.90;;;;;;5036416;28;20513;-87
2020/12/21 10:33:27;;;;;;;7.80;4.70;;;6.70;99.90;;;;;;4815077;29;20865;-86
2020/12/21 10:47:18;;;;;;;8.97;3.90;;;6.90;99.90;;;;;;4801334;29;20440;-86
2020/12/21 10:49:48;;;;;;;12.47;8.50;;;6.90;99.90;;;;;;4817426;29;20207;-86
2020/12/21 10:52:16;;;;;;;5.90;4.17;;;7.00;99.90;;;;;;4839581;29;20561;-85
2020/12/21 10:54:43;;;;;;;5.93;3.70;;;7.00;99.90;;;;;;4913277;29;20460;-85
2020/12/21 11:37:09;;;;;;;7.63;3.60;;;7.40;99.90;;;;;;4813236;29;20486;-85
2020/12/21 11:44:44;;;;;;;7.70;3.57;;;7.40;99.90;;;;;;4848434;29;20504;-85
2020/12/21 11:47:48;;;;;;;10.30;4.25;;;7.40;99.90;;;;;;4854569;29;20481;-86
2020/12/21 11:50:59;;;;;;;6.83;4.00;;;7.60;99.90;;;;;;4871671;29;20476;-85
2020/12/21 11:53:29;;;;;;;4.97;3.40;;;7.50;99.90;;;;;;4889462;29;20490;-85
2020/12/21 11:55:56;;;;;;;7.53;4.07;;;7.50;99.90;;;;;;4872741;29;20478;-85
2020/12/21 12:09:30;;;;;;;;;;;;;;;;;;;;;
2020/12/21 12:13:01;;;;;;;11.67;5.10;;;7.60;99.90;;;;;;4811263;29;20506;-85
2020/12/21 12:20:17;;;;;;;;;;;;;;;;;;;;;
2020/12/21 12:23:16;;;;;;;5.40;3.57;;;7.70;99.90;;;;;;4763164;30;20471;-86
2020/12/21 12:30:24;;;;;;;8.70;5.07;;;7.70;99.90;;;;;;4801398;29;20471;-86
2020/12/21 12:32:54;;;;;;;5.30;4.10;;;7.80;99.90;;;;;;4865549;29;20466;-86
2020/12/21 12:38:33;;;;;;;5.87;3.97;;;7.80;99.90;;;;;;4875708;29;20917;-86
2020/12/21 12:41:02;;;;;;;6.67;3.30;;;7.80;99.90;;;;;;4911010;29;20451;-86
2020/12/21 12:43:30;;;;;;;7.97;3.90;;;7.80;99.90;;;;;;4911415;29;20450;-86
2020/12/21 12:46:02;;;;;;;10.00;4.17;;;7.80;99.90;;;;;;4911334;29;21013;-85
2020/12/21 12:48:29;;;;;;;13.97;9.07;;;7.80;99.90;;;;;;4927131;29;20471;-86
2020/12/21 12:50:57;;;;;;;13.00;8.17;;;7.90;99.90;;;;;;4926712;29;20460;-85
2020/12/21 12:53:27;;;;;;;6.27;3.90;;;7.80;99.90;;;;;;4928487;29;20446;-85
2020/12/21 12:55:54;;;;;;;6.10;3.90;;;7.90;99.90;;;;;;4928327;29;20459;-86
2020/12/21 12:58:22;;;;;;;6.87;4.20;;;7.90;99.90;;;;;;4927723;29;20487;-86
2020/12/21 13:00:49;;;;;;;6.83;3.83;;;7.90;99.90;;;;;;4928421;29;20447;-86
2020/12/21 13:03:18;;;;;;;7.73;4.27;;;7.90;99.90;;;;;;4919450;29;20463;-86
2020/12/21 13:05:45;;;;;;;6.47;4.77;;;7.90;99.90;;;;;;4912003;29;20456;-86
2020/12/21 13:08:12;;;;;;;5.67;4.07;;;7.90;99.90;;;;;;4912086;29;20499;-86
2020/12/21 13:10:40;;;;;;;6.43;3.90;;;7.90;99.90;;;;;;4943623;29;20457;-86
2020/12/21 13:13:07;;;;;;;6.80;4.70;;;8.00;99.90;;;;;;4912455;29;20461;-86
2020/12/21 13:15:54;;;;;;;12.50;4.23;;;8.00;99.90;;;;;;4911095;29;20447;-86
2020/12/21 13:18:22;;;;;;;6.23;3.57;;;8.00;99.90;;;;;;4910372;29;20475;-86
2020/12/21 13:20:56;;;;;;;7.33;3.37;;;8.00;99.90;;;;;;4909906;29;20523;-86
2020/12/21 13:23:38;;;;;;;6.03;3.43;;;8.00;99.90;;;;;;4908991;29;20486;-85
2020/12/21 13:26:15;;;;;;;6.47;3.63;;;8.00;99.90;;;;;;4909960;29;20543;-86
2020/12/21 13:28:48;;;;;;;6.03;3.10;;;8.00;99.90;;;;;;4913185;29;20562;-86
2020/12/21 13:31:17;;;;;;;4.77;3.33;;;8.00;99.90;;;;;;4908070;29;20530;-86
2020/12/21 13:33:45;;;;;;;6.37;3.63;;;8.00;99.90;;;;;;4910411;29;20471;-86
2020/12/21 13:36:13;;;;;;;7.93;3.50;;;8.00;99.90;;;;;;4910413;29;20487;-85
2020/12/21 13:38:41;;;;;;;5.60;3.80;;;8.00;99.90;;;;;;4908519;29;20570;-85
2020/12/21 13:41:09;;;;;;;4.63;3.10;;;8.00;99.90;;;;;;4910933;29;20491;-87
2020/12/21 13:43:37;;;;;;;6.23;3.00;;;8.10;99.90;;;;;;4910520;29;20985;-85
2020/12/21 13:46:06;;;;;;;6.68;3.35;;;8.00;99.90;;;;;;4909550;29;20485;-85
2020/12/21 13:48:35;;;;;;;5.07;3.50;;;8.20;99.90;;;;;;4910393;29;20788;-85
2020/12/21 13:51:08;;;;;;;4.43;3.47;;;8.20;99.90;;;;;;4909801;29;20467;-85
2020/12/21 13:53:36;;;;;;;4.72;3.40;;;8.10;99.90;;;;;;4924681;29;20486;-85
2020/12/21 13:56:03;;;;;;;6.40;3.67;;;8.20;99.90;;;;;;4910081;29;20207;-86
2020/12/21 13:58:32;;;;;;;6.40;3.30;;;8.20;99.90;;;;;;4928142;29;20550;-86
2020/12/21 14:01:00;;;;;;;3.83;3.20;;;8.10;99.90;;;;;;4912305;29;20869;-85
2020/12/21 14:03:27;;;;;;;5.73;3.60;;;8.10;99.90;;;;;;4912938;29;20469;-86
2020/12/21 14:05:55;;;;;;;5.70;3.60;;;8.10;99.90;;;;;;4914067;29;20589;-87
2020/12/21 14:08:23;;;;;;;9.17;3.97;;;8.10;99.90;;;;;;4930121;29;20504;-87
2020/12/21 14:10:50;;;;;;;6.43;3.87;;;8.10;99.90;;;;;;4913826;29;20452;-87
2020/12/21 14:13:19;;;;;;;9.50;4.13;;;8.10;99.90;;;;;;4935746;29;20513;-87
2020/12/21 14:15:46;;;;;;;8.83;3.47;;;8.00;99.90;;;;;;4919719;29;20482;-86
2020/12/21 14:18:13;;;;;;;8.97;4.00;;;8.00;99.90;;;;;;4916353;29;20472;-87
2020/12/21 14:20:41;;;;;;;6.20;3.90;;;8.00;99.90;;;;;;4911165;29;20454;-89
2020/12/21 14:23:08;;;;;;;6.23;4.23;;;8.00;99.90;;;;;;4910937;29;20456;-87
2020/12/21 14:25:36;;;;;;;6.83;4.07;;;8.00;99.90;;;;;;4919067;29;20474;-87
2020/12/21 14:28:04;;;;;;;5.37;3.70;;;8.00;99.90;;;;;;4912601;29;20469;-87
2020/12/21 14:30:31;;;;;;;8.07;4.20;;;8.00;99.90;;;;;;4909476;29;20494;-85
2020/12/21 14:32:58;;;;;;;9.77;4.47;;;8.00;99.90;;;;;;4908363;29;20455;-87
2020/12/21 14:35:25;;;;;;;6.90;4.20;;;8.00;99.90;;;;;;4908115;29;20745;-88
2020/12/21 14:37:53;;;;;;;14.13;10.63;;;8.00;99.90;;;;;;4907962;29;20518;-87
2020/12/21 14:40:24;;;;;;;8.10;4.93;;;8.00;99.90;;;;;;4918456;29;20483;-86
2020/12/21 14:43:05;;;;;;;5.57;3.90;;;7.90;99.90;;;;;;4931694;29;20463;-86
2020/12/21 14:45:43;;;;;;;6.40;4.23;;;8.00;99.90;;;;;;4926752;29;20473;-86
2020/12/21 14:48:34;;;;;;;4.90;4.40;;;8.00;99.90;;;;;;4913028;29;20500;-86
2020/12/21 14:51:21;;;;;;;5.77;4.30;;;7.90;99.90;;;;;;4911996;29;20477;-86
2020/12/21 14:53:58;;;;;;;6.07;4.17;;;7.90;99.90;;;;;;4914341;29;20504;-86
2020/12/21 14:56:25;;;;;;;8.80;4.33;;;7.90;99.90;;;;;;4929426;29;20450;-86
2020/12/21 14:58:54;;;;;;;5.57;3.50;;;8.00;99.90;;;;;;4926143;29;20478;-86
2020/12/21 15:01:23;;;;;;;5.67;4.30;;;7.90;99.90;;;;;;4910260;29;20455;-86
2020/12/21 15:03:53;;;;;;;4.50;3.80;;;7.90;99.90;;;;;;4924410;29;21020;-85
2020/12/21 15:06:20;;;;;;;9.00;4.20;;;7.80;99.90;;;;;;4931457;29;20450;-86
2020/12/21 15:08:48;;;;;;;6.00;4.30;;;7.80;99.90;;;;;;4931389;29;20481;-86
2020/12/21 15:11:15;;;;;;;15.90;9.57;;;7.80;99.90;;;;;;4914427;29;20472;-86
2020/12/21 15:13:43;;;;;;;19.50;13.00;;;7.80;99.90;;;;;;4914485;29;20456;-86
2020/12/21 15:16:12;;;;;;;6.83;4.27;;;7.80;99.90;;;;;;4932167;29;20530;-86
2020/12/21 15:18:41;;;;;;;8.60;4.20;;;7.80;99.90;;;;;;4919654;29;20854;-86
2020/12/21 15:21:10;;;;;;;6.07;3.80;;;7.80;99.90;;;;;;4911947;29;20547;-86
2020/12/21 15:23:38;;;;;;;6.00;3.80;;;7.80;99.90;;;;;;4911940;29;20455;-86
2020/12/21 15:26:07;;;;;;;7.13;4.15;;;7.80;99.90;;;;;;4927712;29;20447;-86
2020/12/21 15:28:35;;;;;;;5.13;3.23;;;7.90;99.90;;;;;;4923089;29;20261;-86
2020/12/21 15:31:02;;;;;;;7.50;4.30;;;7.90;99.90;;;;;;4911355;29;20465;-86
2020/12/21 15:33:30;;;;;;;7.93;5.13;;;7.90;99.90;;;;;;4911512;29;20453;-85
2020/12/21 15:35:58;;;;;;;6.33;4.60;;;7.80;99.90;;;;;;4911790;29;20490;-86
2020/12/21 15:38:26;;;;;;;6.43;4.50;;;7.80;99.90;;;;;;4911543;29;20578;-86
2020/12/21 15:40:54;;;;;;;8.10;5.13;;;7.80;99.90;;;;;;4911534;29;20488;-86
2020/12/21 15:43:21;;;;;;;6.03;4.20;;;7.80;99.90;;;;;;4912903;29;20484;-86
2020/12/21 15:45:49;;;;;;;5.87;4.73;;;7.80;99.90;;;;;;4920081;29;20480;-86
2020/12/21 15:48:16;;;;;;;6.10;5.53;;;7.80;99.90;;;;;;4910961;29;20462;-86
2020/12/21 15:50:53;;;;;;;6.43;4.80;;;7.80;99.90;;;;;;4910876;29;20455;-87
2020/12/21 15:53:20;;;;;;;6.93;4.97;;;7.80;99.90;;;;;;4911541;29;20445;-86
2020/12/21 15:55:48;;;;;;;7.63;5.43;;;7.80;99.90;;;;;;4911400;29;20546;-86
2020/12/21 15:58:15;;;;;;;15.90;10.97;;;7.70;99.90;;;;;;4910872;29;20484;-86
2020/12/21 16:00:44;;;;;;;7.00;5.70;;;7.70;99.90;;;;;;4927637;29;20454;-86
2020/12/21 16:03:56;;;;;;;;;;;;;;;;;;;;;
2020/12/21 16:51:24;;;;;;;8.00;6.10;;;7.60;99.90;;;;;;4814193;29;20443;-86
2020/12/21 16:58:33;;;;;;;8.03;6.17;;;7.60;99.90;;;;;;5812305;23;20534;-82
2020/12/21 17:01:00;;;;;;;10.27;6.00;;;7.60;99.90;;;;;;4979050;28;20481;-81
2020/12/21 17:03:28;;;;;;;6.93;6.20;;;7.60;99.90;;;;;;4975320;28;20451;-82
2020/12/21 17:05:55;;;;;;;9.17;6.70;;;7.60;99.90;;;;;;4976769;28;20488;-82
2020/12/21 17:08:22;;;;;;;10.00;7.20;;;7.60;99.90;;;;;;4976678;28;20558;-82
2020/12/21 17:10:49;;;;;;;7.57;6.70;;;7.60;99.90;;;;;;4960486;28;20449;-82
2020/12/21 17:13:17;;;;;;;8.70;6.77;;;7.60;99.90;;;;;;4960543;28;20468;-81
2020/12/21 17:15:46;;;;;;;8.00;7.20;;;7.60;99.90;;;;;;4950744;29;20547;-82
2020/12/21 17:18:13;;;;;;;11.13;7.30;;;7.60;99.90;;;;;;4958632;28;20445;-81
2020/12/21 17:20:40;;;;;;;9.67;7.20;;;7.70;99.90;;;;;;4960156;28;20202;-81
2020/12/21 17:23:07;;;;;;;7.40;6.53;;;7.70;99.90;;;;;;4977475;28;20882;-81
2020/12/21 17:25:35;;;;;;;9.43;7.20;;;7.70;99.90;;;;;;4977631;28;20436;-82
2020/12/21 17:28:03;;;;;;;7.23;6.50;;;7.70;99.90;;;;;;4992451;28;20527;-81
2020/12/21 17:30:31;;;;;;;9.63;6.90;;;7.60;99.90;;;;;;4992655;28;20452;-81
2020/12/21 17:32:59;;;;;;;11.30;7.80;;;7.60;99.90;;;;;;4960014;28;20452;-81
2020/12/21 17:35:26;;;;;;;9.00;6.37;;;7.60;99.90;;;;;;4959912;28;20444;-81
2020/12/21 17:37:53;;;;;;;11.33;7.47;;;7.60;99.90;;;;;;4973533;28;20504;-81
2020/12/21 17:40:22;;;;;;;9.73;6.57;;;7.70;99.90;;;;;;4956589;29;20939;-81
2020/12/21 17:42:49;;;;;;;8.10;6.60;;;7.60;99.90;;;;;;4957075;29;20444;-81
2020/12/21 17:45:16;;;;;;;8.43;7.40;;;7.60;99.90;;;;;;4957234;29;20448;-81
2020/12/21 17:47:44;;;;;;;9.27;7.60;;;7.70;99.90;;;;;;4958379;29;20462;-81
2020/12/21 17:50:12;;;;;;;8.33;7.37;;;7.60;99.90;;;;;;4974149;28;20792;-82
2020/12/21 17:52:39;;;;;;;10.33;7.47;;;7.60;99.90;;;;;;4960807;28;20458;-81
2020/12/21 17:55:08;;;;;;;9.00;7.77;;;7.60;99.90;;;;;;4960107;28;20932;-81
2020/12/21 17:57:36;;;;;;;9.13;8.27;;;7.60;99.90;;;;;;4992660;28;20476;-81
2020/12/21 18:00:04;;;;;;;8.77;7.70;;;7.60;99.90;;;;;;4959650;28;20879;-82
2020/12/21 18:02:33;;;;;;;9.53;8.27;;;7.60;99.90;;;;;;4959673;28;20458;-81
2020/12/21 18:05:00;;;;;;;10.87;8.33;;;7.60;99.90;;;;;;4960677;28;20536;-81
2020/12/21 18:07:31;;;;;;;9.80;7.67;;;7.60;99.90;;;;;;4960543;28;20469;-82
2020/12/21 18:09:59;;;;;;;10.57;7.87;;;7.60;99.90;;;;;;4977934;28;20903;-81
2020/12/21 18:12:26;;;;;;;9.43;8.10;;;7.60;99.90;;;;;;4960544;28;20458;-82
2020/12/21 18:14:53;;;;;;;11.67;9.10;;;7.60;99.90;;;;;;4960615;28;20976;-81
2020/12/21 18:17:21;;;;;;;10.80;9.30;;;7.60;99.90;;;;;;4992483;28;20528;-81
2020/12/21 18:19:48;;;;;;;9.53;8.10;;;7.60;99.90;;;;;;4977182;28;20504;-81
2020/12/21 18:22:17;;;;;;;10.37;9.10;;;7.60;99.90;;;;;;4961055;28;20459;-81
2020/12/21 18:24:45;;;;;;;10.67;9.67;;;7.60;99.90;;;;;;4997089;28;20449;-81
2020/12/21 18:27:12;;;;;;;11.27;9.10;;;7.60;99.90;;;;;;4984836;28;20504;-81
2020/12/21 18:29:40;;;;;;;10.93;8.73;;;7.60;99.90;;;;;;4950374;29;20489;-82
2020/12/21 18:32:07;;;;;;;12.20;9.80;;;7.60;99.90;;;;;;4962376;29;20427;-80
2020/12/21 18:34:34;;;;;;;21.67;17.67;;;7.70;99.90;;;;;;4943625;29;20463;-81
2020/12/21 18:37:02;;;;;;;12.53;10.93;;;7.60;99.90;;;;;;4943353;29;20487;-82
2020/12/21 18:39:29;;;;;;;11.47;10.27;;;7.70;99.90;;;;;;4976054;28;20528;-82
2020/12/21 18:41:59;;;;;;;13.40;11.25;;;7.60;99.90;;;;;;4974597;28;20510;-81
2020/12/21 18:44:45;;;;;;;13.50;9.37;;;7.70;99.90;;;;;;4975041;28;20197;-82
2020/12/21 18:47:14;;;;;;;13.73;11.43;;;7.80;99.90;;;;;;4945933;29;20464;-82
2020/12/21 18:49:42;;;;;;;13.40;10.93;;;7.70;99.90;;;;;;4959541;29;20444;-82
2020/12/21 18:52:10;;;;;;;13.03;9.67;;;7.80;99.90;;;;;;4975326;28;20217;-81
2020/12/21 18:54:38;;;;;;;14.23;11.27;;;7.80;99.90;;;;;;4959423;29;20457;-82
2020/12/21 18:57:07;;;;;;;13.23;10.23;;;7.80;99.90;;;;;;4959119;29;20455;-81
2020/12/21 18:59:35;;;;;;;17.27;12.43;;;7.70;99.90;;;;;;4958777;29;20473;-81
2020/12/21 19:02:03;;;;;;;15.70;12.00;;;7.70;99.90;;;;;;4960024;29;20465;-81
2020/12/21 19:04:30;;;;;;;22.40;18.77;;;7.70;99.90;;;;;;4959574;28;20460;-82
2020/12/21 19:06:58;;;;;;;15.27;13.17;;;7.70;99.90;;;;;;4952187;29;20454;-81
2020/12/21 19:09:25;;;;;;;14.90;13.20;;;7.80;99.90;;;;;;4942869;29;20473;-81
2020/12/21 19:11:53;;;;;;;13.63;12.10;;;7.70;99.90;;;;;;4974688;28;20449;-81
2020/12/21 19:14:21;;;;;;;13.40;12.10;;;7.80;99.90;;;;;;4942914;29;21062;-81
2020/12/21 19:16:48;;;;;;;13.43;12.00;;;7.80;99.90;;;;;;4974171;28;20458;-82
2020/12/21 19:19:15;;;;;;;13.13;11.73;;;7.80;99.90;;;;;;4974799;28;20540;-81
2020/12/21 19:21:43;;;;;;;13.90;12.40;;;7.80;99.90;;;;;;4974391;28;20547;-81
2020/12/21 19:24:11;;;;;;;13.70;12.10;;;7.80;99.90;;;;;;4974513;28;20858;-81
2020/12/21 19:26:38;;;;;;;13.77;12.37;;;7.80;99.90;;;;;;4974032;28;20469;-82
2020/12/21 19:29:06;;;;;;;13.93;12.53;;;7.80;99.90;;;;;;4974406;28;20536;-81
2020/12/21 19:31:36;;;;;;;13.97;12.67;;;7.80;99.90;;;;;;4942284;29;20450;-81
2020/12/21 19:34:04;;;;;;;15.30;12.73;;;7.80;99.90;;;;;;4942708;29;21027;-81
2020/12/21 19:36:32;;;;;;;15.90;14.30;;;7.90;99.90;;;;;;4974769;28;20494;-82
2020/12/21 19:39:00;;;;;;;14.53;13.00;;;7.80;99.90;;;;;;4942024;29;20473;-82
2020/12/21 19:41:27;;;;;;;16.13;13.33;;;7.80;99.90;;;;;;4942130;29;20880;-82
2020/12/21 19:44:00;;;;;;;18.13;14.40;;;7.80;99.90;;;;;;4974823;28;20457;-82
2020/12/21 19:46:31;;;;;;;15.30;13.80;;;7.80;99.90;;;;;;4974287;28;20436;-82
2020/12/21 19:49:00;;;;;;;15.60;14.00;;;7.90;99.90;;;;;;4942808;29;20477;-82
2020/12/21 19:51:27;;;;;;;15.10;13.70;;;7.80;99.90;;;;;;4942948;29;20834;-82
2020/12/21 19:53:55;;;;;;;15.57;13.87;;;7.80;99.90;;;;;;4974558;28;20507;-82
2020/12/21 19:56:23;;;;;;;15.60;14.00;;;7.90;99.90;;;;;;4943215;28;20453;-82
2020/12/21 19:58:50;;;;;;;15.40;13.67;;;7.90;99.90;;;;;;4957748;29;20587;-82
2020/12/21 20:01:17;;;;;;;18.30;14.90;;;7.90;99.90;;;;;;4974304;28;20488;-82
2020/12/21 20:03:45;;;;;;;16.30;14.03;;;7.90;99.90;;;;;;4941469;29;20455;-82
2020/12/21 20:06:13;;;;;;;18.60;16.70;;;7.90;99.90;;;;;;4961904;28;20446;-82
2020/12/21 20:08:40;;;;;;;19.60;15.50;;;7.90;99.90;;;;;;4960730;28;20468;-82
2020/12/21 20:11:08;;;;;;;17.13;15.33;;;7.90;99.90;;;;;;4961239;28;20491;-82
2020/12/21 20:13:35;;;;;;;17.37;15.57;;;7.90;99.90;;;;;;4992441;28;20468;-82
2020/12/21 20:16:02;;;;;;;18.67;16.10;;;7.90;99.90;;;;;;4962107;28;20944;-82
2020/12/21 20:18:30;;;;;;;18.60;16.60;;;7.90;99.90;;;;;;4960388;28;20485;-81
2020/12/21 20:20:57;;;;;;;17.77;15.97;;;7.90;99.90;;;;;;4961552;28;20965;-82
2020/12/21 20:23:26;;;;;;;17.67;15.87;;;8.00;99.90;;;;;;4959816;28;20540;-82
2020/12/21 20:25:53;;;;;;;19.00;17.00;;;7.90;99.90;;;;;;4968253;28;20500;-82
2020/12/21 20:28:20;;;;;;;19.33;17.33;;;8.00;99.90;;;;;;4958460;29;20465;-82
2020/12/21 20:30:48;;;;;;;18.80;16.13;;;8.00;99.90;;;;;;4956871;29;20500;-81
2020/12/21 20:33:15;;;;;;;18.97;17.03;;;8.00;99.90;;;;;;4940892;29;20539;-82
2020/12/21 20:35:43;;;;;;;17.93;16.10;;;8.00;99.90;;;;;;4956700;29;20508;-82
2020/12/21 20:38:18;;;;;;;18.07;16.17;;;8.00;99.90;;;;;;4957443;29;20868;-82
2020/12/21 20:40:47;;;;;;;19.30;17.30;;;8.00;99.90;;;;;;4956970;29;20512;-81
2020/12/21 20:43:14;;;;;;;20.40;17.47;;;8.00;99.90;;;;;;4960633;28;20474;-81
2020/12/21 20:45:56;;;;;;;19.93;17.00;;;7.90;99.90;;;;;;4991404;28;20501;-81
2020/12/21 20:48:23;;;;;;;17.87;14.87;;;8.10;99.90;;;;;;4960013;28;20508;-81
2020/12/21 20:50:50;;;;;;;16.50;14.70;;;8.00;99.90;;;;;;4960078;28;20956;-81
2020/12/21 20:53:21;;;;;;;18.48;16.27;;;8.10;99.90;;;;;;4960098;28;20465;-82
2020/12/21 20:55:49;;;;;;;15.80;13.70;;;8.10;99.90;;;;;;4960120;28;20197;-82
2020/12/21 20:58:17;;;;;;;17.60;15.23;;;8.10;99.90;;;;;;4959987;28;20567;-81
2020/12/21 21:00:45;;;;;;;17.17;15.30;;;8.10;99.90;;;;;;4960231;28;20525;-81
2020/12/21 21:03:12;;;;;;;24.10;19.73;;;8.10;99.90;;;;;;4960389;28;20457;-81
2020/12/21 21:05:41;;;;;;;17.90;16.10;;;8.10;99.90;;;;;;4960354;28;20467;-82
2020/12/21 21:08:10;;;;;;;17.07;15.23;;;8.10;99.90;;;;;;4960372;28;20473;-82
2020/12/21 21:10:37;;;;;;;18.07;16.13;;;8.10;99.90;;;;;;4960450;28;20490;-82
2020/12/21 21:13:05;;;;;;;17.17;15.33;;;8.10;99.90;;;;;;4977675;28;20461;-81
2020/12/21 21:15:32;;;;;;;16.37;14.67;;;8.10;99.90;;;;;;4976967;28;20489;-81
2020/12/21 21:17:59;;;;;;;16.17;14.47;;;8.10;99.90;;;;;;4960115;28;20571;-81
2020/12/21 21:20:27;;;;;;;18.67;15.23;;;8.10;99.90;;;;;;4961876;28;20476;-81
2020/12/21 21:22:54;;;;;;;17.73;15.83;;;8.10;99.90;;;;;;4960087;28;20987;-81
2020/12/21 21:25:25;;;;;;;17.00;15.00;;;8.10;99.90;;;;;;4960635;28;20459;-81
2020/12/21 21:27:52;;;;;;;18.80;15.67;;;8.10;99.90;;;;;;4960398;28;20466;-81
2020/12/21 21:30:20;;;;;;;20.83;15.47;;;8.10;99.90;;;;;;4978256;28;21022;-81
2020/12/21 21:32:47;;;;;;;19.73;16.37;;;8.10;99.90;;;;;;4959207;28;20453;-81
2020/12/21 21:35:16;;;;;;;17.30;15.27;;;8.00;99.90;;;;;;4976378;28;20532;-81
2020/12/21 21:37:44;;;;;;;18.77;15.80;;;8.00;99.90;;;;;;4959752;28;20477;-81
2020/12/21 21:40:11;;;;;;;17.70;15.40;;;8.10;99.90;;;;;;4959120;28;20469;-81
2020/12/21 21:42:38;;;;;;;17.63;14.70;;;8.10;99.90;;;;;;4958616;28;20887;-81
2020/12/21 21:45:05;;;;;;;16.60;14.80;;;8.10;99.90;;;;;;4958958;28;20559;-81
2020/12/21 21:47:33;;;;;;;17.13;14.33;;;8.10;99.90;;;;;;4956199;29;20585;-81
2020/12/21 21:50:01;;;;;;;17.13;15.00;;;8.10;99.90;;;;;;4940614;29;20482;-81
2020/12/21 21:52:28;;;;;;;17.27;14.93;;;8.20;99.90;;;;;;4957588;29;20885;-81
2020/12/21 21:54:55;;;;;;;16.70;14.97;;;8.10;99.90;;;;;;4957362;29;20561;-81
2020/12/21 21:57:22;;;;;;;15.93;14.13;;;8.10;99.90;;;;;;4939694;29;20488;-82
2020/12/21 21:59:49;;;;;;;15.93;13.70;;;8.20;99.90;;;;;;4947963;28;20560;-82
2020/12/21 22:02:17;;;;;;;16.80;13.63;;;8.20;99.90;;;;;;4954489;28;20452;-82
2020/12/21 22:04:45;;;;;;;13.80;12.33;;;8.20;99.90;;;;;;4963054;28;20457;-82
2020/12/21 22:07:12;;;;;;;15.90;12.97;;;8.20;99.90;;;;;;4962942;28;20499;-82
2020/12/21 22:09:39;;;;;;;14.93;12.80;;;8.20;99.90;;;;;;4963908;28;20806;-81
2020/12/21 22:12:07;;;;;;;15.10;13.20;;;8.20;99.90;;;;;;4981311;28;20443;-82
2020/12/21 22:14:36;;;;;;;16.42;13.40;;;8.20;99.90;;;;;;4959353;29;20490;-81
2020/12/21 22:17:03;;;;;;;14.30;11.87;;;8.30;99.90;;;;;;4969494;28;20226;-81
2020/12/21 22:19:31;;;;;;;15.57;12.10;;;8.30;99.90;;;;;;4962765;28;20503;-81
2020/12/21 22:21:59;;;;;;;14.88;12.65;;;8.30;99.90;;;;;;4962031;28;20520;-81
2020/12/21 22:24:26;;;;;;;12.20;10.90;;;8.40;99.90;;;;;;4962683;28;20255;-82
2020/12/21 22:26:53;;;;;;;13.33;11.93;;;8.30;99.90;;;;;;4965281;28;20970;-81
2020/12/21 22:29:20;;;;;;;13.00;11.60;;;8.30;99.90;;;;;;4943764;29;20465;-82
2020/12/21 22:31:47;;;;;;;14.30;11.90;;;8.40;99.90;;;;;;4975601;28;20488;-82
2020/12/21 22:34:15;;;;;;;14.43;11.93;;;8.40;99.90;;;;;;4961498;29;20529;-82
2020/12/21 22:36:42;;;;;;;14.03;12.67;;;8.30;99.90;;;;;;4944400;29;20468;-82
2020/12/21 22:39:10;;;;;;;12.93;11.67;;;8.40;99.90;;;;;;4960648;29;20484;-82
2020/12/21 22:41:38;;;;;;;13.50;12.10;;;8.30;99.90;;;;;;4963477;28;20450;-82
2020/12/21 22:44:06;;;;;;;13.90;12.40;;;8.40;99.90;;;;;;4982208;28;20436;-82
2020/12/21 22:46:33;;;;;;;14.70;11.80;;;8.40;99.90;;;;;;4976137;28;20453;-82
2020/12/21 22:49:00;;;;;;;14.93;11.77;;;8.40;99.90;;;;;;4961132;29;20463;-82
2020/12/21 22:51:28;;;;;;;13.80;12.40;;;8.40;99.90;;;;;;4959259;28;20556;-82
2020/12/21 22:53:55;;;;;;;13.93;12.00;;;8.40;99.90;;;;;;4980150;28;20476;-82
2020/12/21 22:56:25;;;;;;;12.17;10.97;;;8.40;99.90;;;;;;4962761;28;20504;-82
2020/12/21 22:58:52;;;;;;;13.83;12.43;;;8.50;99.90;;;;;;4962781;28;20527;-82
2020/12/21 23:01:19;;;;;;;13.33;12.03;;;8.40;99.90;;;;;;4978602;28;20480;-82
2020/12/21 23:03:46;;;;;;;13.53;12.17;;;8.40;99.90;;;;;;4975926;28;20497;-82
2020/12/21 23:06:13;;;;;;;13.57;12.17;;;8.50;99.90;;;;;;4943735;29;20822;-82
2020/12/21 23:08:41;;;;;;;12.03;10.83;;;8.50;99.90;;;;;;4943759;29;20509;-82
2020/12/21 23:11:08;;;;;;;14.20;12.80;;;8.50;99.90;;;;;;4943126;29;20509;-82
2020/12/21 23:13:36;;;;;;;13.97;12.57;;;8.50;99.90;;;;;;4960671;29;20442;-82
2020/12/21 23:16:04;;;;;;;13.30;12.00;;;8.50;99.90;;;;;;4942441;29;20525;-82
2020/12/21 23:18:31;;;;;;;12.10;10.80;;;8.50;99.90;;;;;;4942612;29;21024;-82
2020/12/21 23:20:58;;;;;;;13.47;12.07;;;8.50;99.90;;;;;;4974420;28;20564;-82
2020/12/21 23:23:25;;;;;;;11.77;10.67;;;8.60;99.90;;;;;;4961575;28;20478;-82
2020/12/21 23:25:52;;;;;;;12.37;11.07;;;8.60;99.90;;;;;;4958478;29;21023;-82
2020/12/21 23:28:20;;;;;;;12.83;11.53;;;8.60;99.90;;;;;;4942661;29;20474;-82